< < Back
Terminal Aerodrome Forecast


Current Version              Previous Versions:   1  2  3  4  5  6  7  8  9  

Terminal Aerodrome Forecast

090
FTAK31 PAJN 251601 AAA
TAFAHN
TAF AMD
PAHN 251601Z 2516/2612 00000KT P6SM VCSH OVC010
      TEMPO 2516/2518 1SM -DZ BR OVC005
     FM260100 11012KT P6SM VCSH OVC015
      AMD LTD TO CLD VIS AND WIND=

Latest METAR

313
SAUS70 KWBC 251600
MTRAHN
METAR KAHN 251551Z 00000KT 10SM CLR 29/23 A3022 RMK AO2 SLP225
T02890228


USA.gov is the U.S. government's official web portal to all federal, state and local government web resources and services.